createdAt,value
2018-12-17T15:34:50.635Z,6.05
2018-12-17T15:37:17.871Z,5.97
2018-12-17T15:39:45.108Z,6.03
2018-12-17T15:42:12.404Z,5.97
2018-12-17T15:44:39.663Z,5.95
2018-12-17T15:47:06.928Z,5.92
2018-12-17T15:49:34.166Z,6.00
2018-12-17T15:52:01.436Z,6.01
2018-12-17T15:54:28.916Z,5.96
2018-12-17T15:56:56.277Z,6.01
2018-12-17T15:59:25.716Z,5.99
2018-12-17T16:01:52.973Z,5.98
2018-12-17T16:04:20.225Z,5.98
2018-12-17T16:06:47.481Z,6.01
2018-12-17T16:09:14.701Z,6.03
2018-12-17T16:11:41.980Z,6.09
2018-12-17T16:14:09.225Z,6.10
2018-12-17T16:16:36.677Z,6.05
2018-12-17T16:19:03.916Z,6.18
2018-12-17T16:21:31.203Z,6.20
2018-12-17T16:23:58.469Z,6.25
2018-12-17T16:26:25.867Z,6.22
2018-12-17T16:28:53.393Z,6.15
2018-12-17T16:31:20.639Z,6.26
2018-12-17T16:33:47.897Z,6.27
2018-12-17T16:36:15.260Z,6.32
2018-12-17T16:38:42.484Z,6.27
2018-12-17T16:41:09.801Z,6.21
2018-12-17T16:43:37.051Z,6.23
2018-12-17T16:46:04.462Z,6.27
2018-12-17T16:48:31.712Z,6.21
2018-12-17T16:50:59.060Z,6.22
2018-12-17T16:53:26.308Z,6.24
2018-12-17T16:55:53.566Z,6.18
2018-12-17T16:58:20.861Z,6.17
2018-12-17T17:00:48.090Z,6.12
2018-12-17T17:03:15.324Z,6.15
2018-12-17T17:05:42.573Z,6.19
2018-12-17T17:08:09.853Z,6.22
2018-12-17T17:10:37.068Z,6.28
2018-12-17T17:13:04.332Z,6.26
2018-12-17T17:15:31.856Z,6.25
2018-12-17T17:17:59.502Z,6.23
2018-12-17T17:20:28.771Z,6.19
2018-12-17T17:22:56.443Z,6.11
2018-12-17T17:25:23.732Z,6.19
2018-12-17T17:27:51.311Z,6.17
2018-12-17T17:30:18.685Z,6.14
2018-12-17T17:32:45.925Z,6.15
2018-12-17T17:35:13.166Z,6.12
2018-12-17T17:37:40.518Z,6.06
2018-12-17T17:40:07.996Z,6.11
2018-12-17T17:42:35.249Z,6.14
2018-12-17T17:45:02.972Z,6.19
2018-12-17T17:47:30.225Z,6.07
2018-12-17T17:49:57.604Z,6.09
2018-12-17T17:52:24.852Z,6.21
2018-12-17T17:54:52.113Z,6.23
2018-12-17T17:57:19.393Z,6.18
2018-12-17T17:59:46.650Z,6.19
2018-12-17T18:02:18.686Z,6.30
2018-12-17T18:04:43.350Z,6.14
2018-12-17T18:07:10.704Z,6.25
2018-12-17T18:09:37.983Z,6.31
2018-12-17T18:12:05.422Z,6.35
2018-12-17T18:14:34.797Z,6.24
2018-12-17T18:17:02.845Z,6.33
2018-12-17T18:19:30.412Z,6.29
2018-12-17T18:21:57.664Z,6.30
2018-12-17T18:24:24.932Z,6.29
2018-12-17T18:26:53.119Z,6.29
2018-12-17T18:29:20.452Z,6.19
2018-12-17T18:31:47.705Z,6.26
2018-12-17T18:34:14.992Z,6.21
2018-12-17T18:36:42.914Z,6.23
2018-12-17T18:39:10.678Z,6.12
2018-12-17T18:41:38.580Z,6.19
2018-12-17T18:44:05.973Z,6.19
2018-12-17T18:46:33.209Z,6.32
2018-12-17T18:49:00.664Z,6.31
2018-12-17T18:51:28.000Z,6.26
2018-12-17T18:53:55.864Z,6.25
2018-12-17T18:56:23.316Z,6.23
2018-12-17T18:58:50.695Z,6.20
2018-12-17T19:01:17.972Z,6.20
2018-12-17T19:03:45.198Z,6.25
2018-12-17T19:06:12.594Z,6.19
2018-12-17T19:08:39.832Z,6.32
2018-12-17T19:11:08.125Z,6.19
2018-12-17T19:13:35.377Z,6.33
2018-12-17T19:16:02.973Z,6.33
2018-12-17T19:18:30.425Z,6.27
2018-12-17T19:20:57.666Z,6.33
2018-12-17T19:23:24.981Z,6.33
2018-12-17T19:25:52.384Z,6.26
2018-12-17T19:28:19.618Z,6.19
2018-12-17T19:30:46.901Z,6.34
2018-12-17T19:33:14.128Z,6.31
2018-12-17T19:35:41.416Z,6.27
2018-12-17T19:38:10.373Z,6.27
2018-12-17T19:40:37.660Z,6.23
2018-12-17T19:43:04.864Z,6.23
2018-12-17T19:45:32.973Z,6.26
2018-12-17T19:48:00.330Z,6.19
2018-12-17T19:50:27.635Z,6.15
2018-12-17T19:52:54.885Z,6.11
2018-12-17T19:55:22.176Z,6.03
2018-12-17T19:57:49.417Z,6.01
2018-12-17T20:00:16.696Z,6.02
2018-12-17T20:02:47.025Z,6.00
2018-12-17T20:05:13.225Z,6.04
2018-12-17T20:07:40.455Z,6.01
2018-12-17T20:10:12.466Z,5.94
2018-12-17T20:12:39.695Z,5.98
2018-12-17T20:15:07.148Z,6.05
2018-12-17T20:17:34.395Z,6.04
2018-12-17T20:20:01.765Z,5.99
2018-12-17T20:22:29.162Z,6.03
2018-12-17T20:24:56.401Z,6.02
2018-12-17T20:27:24.239Z,6.15
2018-12-17T20:29:51.485Z,6.01
2018-12-17T20:32:18.798Z,6.06
2018-12-17T20:34:46.056Z,6.01
2018-12-17T20:37:13.386Z,6.07
2018-12-17T20:39:40.957Z,6.04
2018-12-17T20:42:08.403Z,5.94
2018-12-17T20:44:35.644Z,5.94
2018-12-17T20:47:02.923Z,5.89
2018-12-17T20:49:30.173Z,6.00
2018-12-17T20:51:57.481Z,6.13
2018-12-17T20:54:24.876Z,6.06
2018-12-17T20:56:52.127Z,6.03
2018-12-17T20:59:19.453Z,6.02
2018-12-17T21:01:46.756Z,6.10
2018-12-17T21:04:13.997Z,5.99
2018-12-17T21:06:41.229Z,5.91
2018-12-17T21:09:08.513Z,5.89
2018-12-17T21:11:35.761Z,5.86
2018-12-17T21:14:03.260Z,5.91
2018-12-17T21:16:30.536Z,5.99
2018-12-17T21:18:57.759Z,6.02
2018-12-17T21:21:25.009Z,5.95
2018-12-17T21:23:52.335Z,5.95
2018-12-17T21:26:20.036Z,5.91
2018-12-17T21:28:47.426Z,5.96
2018-12-17T21:31:14.634Z,5.88
2018-12-17T21:33:41.895Z,5.95
2018-12-17T21:36:09.113Z,6.01
2018-12-17T21:38:36.365Z,6.00
2018-12-17T21:41:03.614Z,5.91
2018-12-17T21:43:36.056Z,5.91
2018-12-17T21:46:00.095Z,5.85
2018-12-17T21:48:27.358Z,5.78
2018-12-17T21:50:54.709Z,5.80
2018-12-17T21:53:22.017Z,5.71
2018-12-17T21:55:49.272Z,5.72
2018-12-17T21:58:16.581Z,5.81
2018-12-17T22:00:44.151Z,5.78
2018-12-17T22:03:13.415Z,5.68
2018-12-17T22:05:40.758Z,5.81
2018-12-17T22:08:08.024Z,5.84
2018-12-17T22:10:35.601Z,5.86
2018-12-17T22:13:03.666Z,5.90
2018-12-17T22:15:31.408Z,5.86
2018-12-17T22:17:58.789Z,5.90
2018-12-17T22:20:26.132Z,5.94
2018-12-17T22:22:53.389Z,5.96
2018-12-17T22:25:20.614Z,5.96
2018-12-17T22:27:47.838Z,5.96
2018-12-17T22:30:15.089Z,5.90
2018-12-17T22:32:42.313Z,5.95
2018-12-17T22:35:09.517Z,6.07
2018-12-17T22:37:36.928Z,6.07
2018-12-17T22:40:04.967Z,6.07
2018-12-17T22:42:32.241Z,6.10
2018-12-17T22:44:59.646Z,6.03
2018-12-17T22:47:27.078Z,5.95
2018-12-17T22:49:54.305Z,6.04
2018-12-17T22:52:21.570Z,5.98
2018-12-17T22:54:48.816Z,6.04
2018-12-17T22:57:16.040Z,6.03
2018-12-17T22:59:43.276Z,6.09
2018-12-17T23:02:10.507Z,6.04
2018-12-17T23:04:37.732Z,6.06
2018-12-17T23:07:05.066Z,6.15
2018-12-17T23:09:43.837Z,6.13
2018-12-17T23:12:22.612Z,6.02
2018-12-17T23:15:01.314Z,6.08
2018-12-17T23:17:39.380Z,6.05
2018-12-17T23:20:07.963Z,6.10
2018-12-17T23:22:36.346Z,6.12
2018-12-17T23:25:04.186Z,6.10
2018-12-17T23:27:31.607Z,6.09
2018-12-17T23:29:58.952Z,6.22
2018-12-17T23:32:33.289Z,6.24
2018-12-17T23:35:00.535Z,6.19
2018-12-17T23:37:27.959Z,6.29
2018-12-17T23:39:55.313Z,6.30
2018-12-17T23:42:22.581Z,6.31
2018-12-17T23:44:49.813Z,6.41
2018-12-17T23:47:17.148Z,6.27
2018-12-17T23:49:44.381Z,6.34
2018-12-17T23:52:11.616Z,6.42
2018-12-17T23:54:38.852Z,6.31
2018-12-17T23:57:06.069Z,6.30
2018-12-17T23:59:33.276Z,6.31
